createdAt,value
2023-09-05T00:01:56.838Z,79.58
2023-09-05T00:04:23.786Z,77.36
2023-09-05T00:06:50.573Z,77.88
2023-09-05T00:09:19.565Z,77.91
2023-09-05T00:11:47.102Z,78.96
2023-09-05T00:14:14.165Z,78.79
2023-09-05T00:16:40.941Z,78.28
2023-09-05T00:19:07.706Z,76.36
2023-09-05T00:21:34.412Z,75.94
2023-09-05T00:24:34.696Z,73.67
2023-09-05T00:27:07.659Z,73.13
2023-09-05T00:29:34.571Z,73.16
2023-09-05T00:32:02.217Z,69.15
2023-09-05T00:34:37.588Z,67.11
2023-09-05T00:39:42.501Z,65.06
2023-09-05T00:42:13.663Z,63.37
2023-09-05T00:44:40.528Z,62.30
2023-09-05T00:47:08.064Z,62.37
2023-09-05T00:49:42.996Z,61.08
2023-09-05T00:52:11.834Z,61.28
2023-09-05T00:54:39.116Z,59.71
2023-09-05T00:57:07.191Z,59.83
2023-09-05T00:59:34.065Z,59.44
2023-09-05T01:02:00.937Z,60.03
2023-09-05T01:04:27.856Z,59.88
2023-09-05T01:07:14.599Z,59.97
2023-09-05T01:09:52.242Z,58.58
2023-09-05T01:12:19.450Z,58.53
2023-09-05T01:14:46.229Z,60.11
2023-09-05T01:17:13.045Z,60.10
2023-09-05T01:22:23.078Z,59.74
2023-09-05T01:24:51.522Z,59.88
2023-09-05T01:27:20.791Z,60.68
2023-09-05T01:29:48.791Z,59.05
2023-09-05T01:32:16.629Z,60.46
2023-09-05T01:34:43.525Z,60.36
2023-09-05T01:37:15.830Z,60.43
2023-09-05T01:39:45.933Z,60.88
2023-09-05T01:42:12.711Z,61.83
2023-09-05T01:44:40.237Z,63.56
2023-09-05T01:47:07.453Z,63.24
2023-09-05T01:49:34.363Z,64.93
2023-09-05T01:52:01.103Z,64.98
2023-09-05T01:54:27.900Z,65.56
2023-09-05T01:56:54.695Z,67.15
2023-09-05T01:59:22.094Z,67.12
2023-09-05T02:01:48.996Z,68.29
2023-09-05T02:04:15.775Z,68.42
2023-09-05T02:06:42.553Z,68.95
2023-09-05T02:09:09.752Z,69.60
2023-09-05T02:11:36.514Z,70.03
2023-09-05T02:14:03.299Z,70.07
2023-09-05T02:16:30.152Z,71.12
2023-09-05T02:18:56.876Z,71.60
2023-09-05T02:21:23.561Z,72.08
2023-09-05T02:23:50.324Z,71.52
2023-09-05T02:26:17.275Z,72.39
2023-09-05T02:28:46.431Z,72.37
2023-09-05T02:31:13.377Z,72.33
2023-09-05T02:33:40.176Z,72.89
2023-09-05T02:36:20.014Z,73.06
2023-09-05T02:38:47.674Z,72.85
2023-09-05T02:41:18.390Z,72.99
2023-09-05T02:43:48.200Z,72.84
2023-09-05T02:46:15.983Z,70.88
2023-09-05T02:48:43.696Z,71.34
2023-09-05T02:51:13.889Z,71.01
2023-09-05T02:53:40.832Z,72.25
2023-09-05T02:56:07.855Z,72.32
2023-09-05T02:58:35.222Z,71.73
2023-09-05T03:01:04.095Z,71.41
2023-09-05T03:03:32.375Z,71.26
2023-09-05T03:06:11.949Z,72.05
2023-09-05T03:08:39.959Z,72.67
2023-09-05T03:11:06.751Z,72.59
2023-09-05T03:13:33.523Z,71.98
2023-09-05T03:16:00.364Z,71.98
2023-09-05T03:18:27.221Z,73.23
2023-09-05T03:20:54.245Z,73.39
2023-09-05T03:23:24.216Z,73.48
2023-09-05T03:25:52.504Z,73.71
2023-09-05T03:28:19.257Z,73.83
2023-09-05T03:38:27.434Z,74.86
2023-09-05T03:40:56.178Z,74.95
2023-09-05T03:43:23.170Z,74.63
2023-09-05T03:45:50.201Z,74.36
2023-09-05T03:48:17.587Z,74.44
2023-09-05T03:50:44.448Z,75.26
2023-09-05T03:53:11.231Z,76.36
2023-09-05T03:55:38.006Z,75.70
2023-09-05T03:58:05.884Z,76.68
2023-09-05T04:00:35.893Z,77.15
2023-09-05T04:03:06.030Z,77.01
2023-09-05T04:05:35.505Z,76.92
2023-09-05T04:08:03.029Z,77.69
2023-09-05T04:10:29.999Z,78.13
2023-09-05T04:12:57.439Z,78.64
2023-09-05T04:15:24.762Z,78.29
2023-09-05T04:17:54.177Z,77.96
2023-09-05T04:20:21.083Z,78.46
2023-09-05T04:22:47.903Z,78.72
2023-09-05T04:25:16.142Z,78.95
2023-09-05T04:30:21.969Z,79.71
2023-09-05T04:32:48.727Z,79.68
2023-09-05T04:35:15.512Z,79.84
2023-09-05T04:37:42.246Z,79.56
2023-09-05T04:40:09.490Z,79.25
2023-09-05T04:42:37.110Z,79.41
2023-09-05T04:45:04.105Z,80.05
2023-09-05T04:47:31.001Z,80.04
2023-09-05T04:50:01.090Z,80.46
2023-09-05T04:52:30.029Z,81.17
2023-09-05T04:54:58.512Z,81.55
2023-09-05T04:57:26.203Z,81.75
2023-09-05T04:59:58.646Z,81.20
2023-09-05T05:02:26.860Z,81.39
2023-09-05T05:04:55.151Z,81.14
2023-09-05T05:07:22.381Z,81.52
2023-09-05T05:09:49.265Z,81.76
2023-09-05T05:12:18.313Z,82.19
2023-09-05T05:14:45.167Z,81.87
2023-09-05T05:19:45.571Z,82.32
2023-09-05T05:22:12.529Z,82.64
2023-09-05T05:24:39.406Z,82.95
2023-09-05T05:27:06.121Z,82.87
2023-09-05T05:29:34.145Z,82.68
2023-09-05T05:32:02.688Z,82.47
2023-09-05T05:37:05.218Z,83.25
2023-09-05T05:39:31.931Z,83.78
2023-09-05T05:41:58.751Z,84.88
2023-09-05T05:44:25.510Z,84.70
2023-09-05T05:46:52.562Z,84.45
2023-09-05T05:49:19.265Z,85.13
2023-09-05T05:54:18.565Z,85.70
2023-09-05T05:56:45.545Z,86.06
2023-09-05T05:59:12.252Z,85.82
2023-09-05T06:01:39.201Z,85.01
2023-09-05T06:04:05.966Z,85.58
2023-09-05T06:06:33.436Z,84.86
2023-09-05T06:09:00.234Z,85.25
2023-09-05T06:11:27.011Z,84.93
2023-09-05T06:13:53.944Z,84.57
2023-09-05T06:16:22.216Z,84.55
2023-09-05T06:18:49.383Z,82.72
2023-09-05T06:21:16.254Z,78.78
2023-09-05T06:23:43.272Z,78.36
2023-09-05T06:26:10.084Z,76.10
2023-09-05T06:28:36.920Z,74.89
2023-09-05T06:31:05.498Z,75.81
2023-09-05T06:33:32.221Z,75.38
2023-09-05T06:35:58.928Z,73.65
2023-09-05T06:38:27.656Z,72.06
2023-09-05T06:40:54.606Z,71.95
2023-09-05T06:43:21.328Z,71.71
2023-09-05T06:45:48.081Z,70.13
2023-09-05T06:48:14.932Z,70.27
2023-09-05T06:50:41.762Z,67.63
2023-09-05T06:53:08.515Z,66.10
2023-09-05T06:58:14.276Z,65.23
2023-09-05T07:00:41.027Z,64.26
2023-09-05T07:03:07.834Z,63.64
2023-09-05T07:05:42.338Z,62.56
2023-09-05T07:10:42.725Z,60.03
2023-09-05T07:13:09.477Z,60.66
2023-09-05T07:15:36.401Z,58.89
2023-09-05T07:18:03.247Z,58.59
2023-09-05T07:20:30.046Z,57.34
2023-09-05T07:22:56.789Z,56.57
2023-09-05T07:25:23.539Z,56.53
2023-09-05T07:27:50.307Z,55.14
2023-09-05T07:30:17.789Z,56.11
2023-09-05T07:32:47.534Z,55.85
2023-09-05T07:35:14.319Z,54.94
2023-09-05T07:37:41.197Z,55.03
2023-09-05T07:40:08.594Z,54.64
2023-09-05T07:42:35.579Z,54.52
2023-09-05T07:45:03.949Z,53.25
2023-09-05T07:47:31.467Z,53.34
2023-09-05T07:49:58.325Z,51.56
2023-09-05T07:52:25.114Z,52.12
2023-09-05T07:54:51.845Z,51.22
2023-09-05T07:57:18.653Z,51.24
2023-09-05T07:59:46.098Z,50.38
2023-09-05T08:02:12.988Z,49.87
2023-09-05T08:04:41.332Z,49.51
2023-09-05T08:07:08.428Z,49.58
2023-09-05T08:09:35.303Z,48.87
2023-09-05T08:12:03.070Z,48.86
2023-09-05T08:14:30.384Z,48.29
2023-09-05T08:16:57.600Z,48.71
2023-09-05T08:19:24.483Z,48.76
2023-09-05T08:21:51.205Z,48.36
2023-09-05T08:24:17.943Z,48.48
2023-09-05T08:26:44.696Z,47.77
2023-09-05T08:29:11.459Z,47.70
2023-09-05T08:31:38.380Z,47.26
2023-09-05T08:34:05.198Z,47.75
2023-09-05T08:36:33.361Z,47.42
2023-09-05T08:39:00.956Z,46.96
2023-09-05T08:44:06.533Z,47.07
2023-09-05T08:46:33.477Z,46.68
2023-09-05T08:49:00.337Z,46.66
2023-09-05T08:51:33.257Z,45.70
2023-09-05T08:56:35.520Z,44.98
2023-09-05T08:59:02.978Z,45.26
2023-09-05T09:01:33.453Z,45.51
2023-09-05T09:04:02.461Z,45.53
2023-09-05T09:06:29.376Z,44.68
2023-09-05T09:08:57.440Z,44.65
2023-09-05T09:11:24.499Z,45.61
2023-09-05T09:13:58.974Z,44.23
2023-09-05T09:16:26.082Z,43.70
2023-09-05T09:19:04.233Z,42.98
2023-09-05T09:21:32.664Z,43.77
2023-09-05T09:24:09.327Z,43.89
2023-09-05T09:26:40.099Z,43.11
2023-09-05T09:29:11.200Z,44.28
2023-09-05T09:31:41.750Z,43.53
2023-09-05T09:34:09.356Z,43.23
2023-09-05T09:36:38.621Z,43.01
2023-09-05T09:41:48.460Z,42.82
2023-09-05T09:44:27.309Z,41.95
2023-09-05T09:46:55.997Z,42.02
2023-09-05T09:49:28.467Z,41.98
2023-09-05T09:51:57.255Z,41.72
2023-09-05T09:54:38.060Z,41.00
2023-09-05T09:57:06.376Z,41.77
2023-09-05T09:59:38.950Z,41.45
2023-09-05T10:02:16.675Z,41.78
2023-09-05T10:04:45.508Z,40.98
2023-09-05T10:07:17.273Z,41.68
2023-09-05T10:09:46.619Z,40.65
2023-09-05T10:12:15.821Z,41.33
2023-09-05T10:14:43.585Z,42.44
2023-09-05T10:17:11.070Z,41.19
2023-09-05T10:19:39.965Z,41.28
2023-09-05T10:22:07.912Z,41.79
2023-09-05T10:24:36.709Z,42.06
2023-09-05T10:27:05.197Z,41.38
2023-09-05T10:32:27.354Z,40.87
2023-09-05T10:34:57.089Z,40.50
2023-09-05T10:37:28.431Z,40.17
2023-09-05T10:39:57.369Z,41.27
2023-09-05T10:42:33.180Z,40.31
2023-09-05T10:45:18.464Z,39.77
2023-09-05T10:47:45.431Z,41.01
2023-09-05T10:50:14.020Z,40.45
2023-09-05T10:52:40.833Z,40.58
2023-09-05T10:55:30.914Z,41.41
2023-09-05T10:57:58.258Z,40.36
2023-09-05T11:00:28.393Z,40.47
2023-09-05T11:02:57.502Z,41.10
2023-09-05T11:05:28.524Z,40.40
2023-09-05T11:07:56.626Z,38.98
2023-09-05T11:10:34.851Z,38.21
2023-09-05T11:13:15.696Z,38.40
2023-09-05T11:15:46.728Z,38.62
2023-09-05T11:18:15.937Z,38.61
2023-09-05T11:20:49.959Z,38.69
2023-09-05T11:23:18.816Z,38.65
2023-09-05T11:25:48.005Z,38.73
2023-09-05T11:28:16.148Z,39.48
2023-09-05T11:30:47.696Z,38.29
2023-09-05T11:33:16.099Z,38.74
2023-09-05T11:35:46.805Z,39.20
2023-09-05T11:38:14.507Z,39.67
2023-09-05T11:40:42.690Z,39.22
2023-09-05T11:43:10.936Z,38.46
2023-09-05T11:45:39.158Z,38.47
2023-09-05T11:48:08.932Z,38.26
2023-09-05T11:50:36.093Z,38.89
2023-09-05T11:53:05.163Z,38.32
2023-09-05T11:55:32.316Z,37.78
2023-09-05T11:58:00.527Z,38.08
2023-09-05T12:00:28.186Z,37.62
2023-09-05T12:02:57.925Z,37.46
2023-09-05T12:05:24.839Z,37.00
2023-09-05T12:07:52.556Z,37.48
2023-09-05T12:10:19.725Z,38.11
2023-09-05T12:12:56.584Z,37.68
2023-09-05T12:15:31.177Z,36.49
2023-09-05T12:18:01.175Z,37.32
2023-09-05T12:20:28.051Z,37.24
2023-09-05T12:22:54.934Z,37.21
2023-09-05T12:25:26.378Z,37.07
2023-09-05T12:27:59.795Z,37.08
2023-09-05T12:30:26.547Z,36.88
2023-09-05T12:33:01.730Z,37.77
2023-09-05T12:38:08.847Z,37.54
2023-09-05T12:40:38.508Z,38.19
2023-09-05T12:43:05.648Z,38.71
2023-09-05T12:45:34.375Z,38.36
2023-09-05T12:48:01.500Z,38.02
2023-09-05T12:50:36.641Z,38.67
2023-09-05T12:53:04.277Z,38.08
2023-09-05T12:55:33.674Z,38.35
2023-09-05T12:58:04.393Z,36.91
2023-09-05T13:00:36.054Z,36.74
2023-09-05T13:03:04.477Z,37.15
2023-09-05T13:05:31.884Z,38.11
2023-09-05T13:07:59.903Z,38.54
2023-09-05T13:13:01.788Z,38.56
2023-09-05T13:15:30.960Z,38.91
2023-09-05T13:17:58.147Z,39.36
2023-09-05T13:20:25.071Z,40.31
2023-09-05T13:22:52.694Z,40.05
2023-09-05T13:25:20.772Z,41.00
2023-09-05T13:27:48.653Z,41.46
2023-09-05T13:30:16.218Z,41.06
2023-09-05T13:32:43.089Z,40.37
2023-09-05T13:35:10.822Z,41.23
2023-09-05T13:37:37.775Z,42.26
2023-09-05T13:40:05.390Z,42.60
2023-09-05T13:42:32.462Z,42.05
2023-09-05T13:44:59.255Z,41.31
2023-09-05T13:49:58.779Z,40.47
2023-09-05T13:52:25.612Z,39.69
2023-09-05T13:54:52.346Z,40.91
2023-09-05T13:57:19.127Z,40.32
2023-09-05T13:59:46.449Z,42.39
2023-09-05T14:02:13.321Z,41.73
2023-09-05T14:04:40.173Z,39.53
2023-09-05T14:07:08.311Z,40.02
2023-09-05T14:09:38.058Z,40.01
2023-09-05T14:12:05.417Z,42.05
2023-09-05T14:14:32.175Z,42.09
2023-09-05T14:16:58.897Z,42.01
2023-09-05T14:19:25.961Z,40.97
2023-09-05T14:21:52.761Z,39.58
2023-09-05T14:24:19.552Z,39.88
2023-09-05T14:26:47.864Z,41.50
2023-09-05T14:29:15.818Z,40.67
2023-09-05T14:31:43.211Z,40.51
2023-09-05T14:34:10.798Z,42.64
2023-09-05T14:36:37.870Z,41.59
2023-09-05T14:39:05.299Z,41.39
2023-09-05T14:41:32.993Z,42.87
2023-09-05T14:44:04.592Z,41.99
2023-09-05T14:46:33.837Z,41.57
2023-09-05T14:49:00.996Z,40.94
2023-09-05T14:51:27.869Z,41.91
2023-09-05T14:56:32.940Z,43.88
2023-09-05T14:58:59.712Z,42.52
2023-09-05T15:01:26.456Z,42.30
2023-09-05T15:06:30.335Z,43.27
2023-09-05T15:08:57.148Z,44.04
2023-09-05T15:13:57.320Z,43.58
2023-09-05T15:16:26.432Z,44.53
2023-09-05T15:18:53.170Z,44.01
2023-09-05T15:21:19.965Z,44.66
2023-09-05T15:23:46.681Z,45.22
2023-09-05T15:26:13.462Z,44.34
2023-09-05T15:28:41.770Z,45.51
2023-09-05T15:31:10.055Z,45.41
2023-09-05T15:33:36.953Z,45.34
2023-09-05T15:36:03.836Z,46.01
2023-09-05T15:38:30.758Z,45.29
2023-09-05T15:40:57.568Z,45.74
2023-09-05T15:43:24.297Z,45.28
2023-09-05T15:45:52.611Z,45.21
2023-09-05T15:48:19.560Z,45.44
2023-09-05T15:50:46.976Z,45.58
2023-09-05T15:53:19.652Z,45.82
2023-09-05T15:55:46.352Z,45.66
2023-09-05T15:58:13.180Z,45.31
2023-09-05T16:00:40.350Z,45.43
2023-09-05T16:03:07.372Z,45.03
2023-09-05T16:05:34.318Z,45.47
2023-09-05T16:08:01.573Z,45.96
2023-09-05T16:10:28.352Z,46.31
2023-09-05T16:12:55.125Z,45.83
2023-09-05T16:15:21.886Z,46.44
2023-09-05T16:17:48.688Z,45.83
2023-09-05T16:20:15.668Z,45.71
2023-09-05T16:22:42.421Z,46.20
2023-09-05T16:25:11.652Z,46.11
2023-09-05T16:27:38.812Z,45.98
2023-09-05T16:30:09.486Z,46.64
2023-09-05T16:32:36.800Z,46.85
2023-09-05T16:35:03.678Z,47.38
2023-09-05T16:37:30.438Z,46.92
2023-09-05T16:39:57.309Z,47.25
2023-09-05T16:42:24.082Z,47.07
2023-09-05T16:44:50.837Z,46.50
2023-09-05T16:47:17.652Z,46.95
2023-09-05T16:49:44.413Z,47.29
2023-09-05T16:52:11.349Z,46.55
2023-09-05T16:57:16.400Z,46.70
2023-09-05T16:59:43.172Z,47.57
2023-09-05T17:02:09.973Z,46.72
2023-09-05T17:04:38.049Z,47.25
2023-09-05T17:07:05.794Z,47.28
2023-09-05T17:09:33.012Z,47.19
2023-09-05T17:11:59.939Z,47.59
2023-09-05T17:14:27.494Z,47.06
2023-09-05T17:16:54.262Z,47.13
2023-09-05T17:19:21.037Z,47.48
2023-09-05T17:21:47.807Z,48.15
2023-09-05T17:24:14.549Z,48.11
2023-09-05T17:26:41.257Z,47.93
2023-09-05T17:29:07.985Z,48.28
2023-09-05T17:31:35.117Z,48.63
2023-09-05T17:34:02.561Z,48.30
2023-09-05T17:36:29.337Z,48.40
2023-09-05T17:38:56.167Z,47.29
2023-09-05T17:41:22.946Z,47.43
2023-09-05T17:43:51.170Z,47.72
2023-09-05T17:46:17.952Z,47.83
2023-09-05T17:48:44.817Z,47.10
2023-09-05T17:51:12.827Z,47.10
2023-09-05T17:53:39.659Z,47.85
2023-09-05T17:56:06.780Z,47.79
2023-09-05T17:58:33.560Z,47.77
2023-09-05T18:01:00.362Z,47.98
2023-09-05T18:03:27.242Z,47.78
2023-09-05T18:05:54.096Z,48.27
2023-09-05T18:08:20.910Z,48.22
2023-09-05T18:10:47.820Z,48.56
2023-09-05T18:13:14.966Z,50.77
2023-09-05T18:15:42.928Z,51.70
2023-09-05T18:18:10.613Z,50.63
2023-09-05T18:20:41.255Z,51.71
2023-09-05T18:23:08.103Z,51.09
2023-09-05T18:25:34.852Z,51.85
2023-09-05T18:28:01.590Z,52.92
2023-09-05T18:30:28.547Z,53.81
2023-09-05T18:32:55.320Z,54.64
2023-09-05T18:35:22.130Z,55.75
2023-09-05T18:37:48.972Z,56.72
2023-09-05T18:40:15.818Z,56.49
2023-09-05T18:42:42.759Z,57.91
2023-09-05T18:45:11.023Z,58.12
2023-09-05T18:47:38.547Z,57.47
2023-09-05T18:50:06.173Z,58.52
2023-09-05T18:52:32.940Z,59.63
2023-09-05T18:54:59.890Z,59.72
2023-09-05T18:57:26.724Z,59.83
2023-09-05T18:59:53.503Z,59.77
2023-09-05T19:02:26.550Z,60.04
2023-09-05T19:04:53.583Z,61.10
2023-09-05T19:07:20.335Z,60.37
2023-09-05T19:09:47.140Z,60.92
2023-09-05T19:12:15.043Z,61.53
2023-09-05T19:14:41.809Z,60.42
2023-09-05T19:17:08.569Z,61.71
2023-09-05T19:19:36.398Z,59.49
2023-09-05T19:22:05.202Z,59.25
2023-09-05T19:27:12.248Z,59.67
2023-09-05T19:29:39.056Z,61.70
2023-09-05T19:32:06.318Z,62.09
2023-09-05T19:34:34.112Z,61.00
2023-09-05T19:37:00.963Z,63.55
2023-09-05T19:39:30.580Z,65.04
2023-09-05T19:41:58.406Z,62.58
2023-09-05T19:44:25.232Z,61.35
2023-09-05T19:46:52.052Z,60.53
2023-09-05T19:49:18.776Z,61.39
2023-09-05T19:51:45.583Z,62.29
2023-09-05T19:56:44.640Z,64.08
2023-09-05T19:59:11.375Z,64.85
2023-09-05T20:01:40.551Z,64.78
2023-09-05T20:04:07.944Z,65.88
2023-09-05T20:06:37.344Z,65.16
2023-09-05T20:09:05.864Z,66.67
2023-09-05T20:11:34.816Z,67.33
2023-09-05T20:14:02.522Z,67.91
2023-09-05T20:16:29.358Z,68.83
2023-09-05T20:18:56.227Z,69.40
2023-09-05T20:23:54.214Z,70.24
2023-09-05T20:26:20.997Z,70.66
2023-09-05T20:28:47.733Z,70.35
2023-09-05T20:31:14.520Z,70.81
2023-09-05T20:33:41.322Z,70.55
2023-09-05T20:36:09.135Z,71.71
2023-09-05T20:38:36.177Z,71.88
2023-09-05T20:43:40.485Z,72.29
2023-09-05T20:46:07.404Z,72.00
2023-09-05T20:48:34.519Z,70.49
2023-09-05T20:51:01.617Z,71.00
2023-09-05T20:53:28.422Z,72.19
2023-09-05T20:55:55.863Z,73.75
2023-09-05T20:58:22.684Z,74.24
2023-09-05T21:00:49.665Z,74.83
2023-09-05T21:03:16.567Z,75.73
2023-09-05T21:05:43.331Z,76.57
2023-09-05T21:08:10.082Z,77.42
2023-09-05T21:10:37.476Z,77.18
2023-09-05T21:13:05.310Z,77.61
2023-09-05T21:15:32.113Z,78.52
2023-09-05T21:17:58.938Z,78.28
2023-09-05T21:20:25.862Z,78.58
2023-09-05T21:22:52.716Z,78.25
2023-09-05T21:25:19.469Z,78.70
2023-09-05T21:27:46.599Z,78.75
2023-09-05T21:30:13.396Z,79.30
2023-09-05T21:32:40.790Z,79.01
2023-09-05T21:35:08.274Z,79.66
2023-09-05T21:40:13.260Z,79.25
2023-09-05T21:42:42.285Z,78.99
2023-09-05T21:45:09.969Z,78.82
2023-09-05T21:50:08.654Z,78.66
2023-09-05T21:52:35.403Z,79.37
2023-09-05T21:55:02.215Z,80.18
2023-09-05T21:57:29.068Z,79.09
2023-09-05T21:59:55.754Z,79.10
2023-09-05T22:02:22.575Z,79.73
2023-09-05T22:04:49.410Z,79.74
2023-09-05T22:07:16.237Z,80.37
2023-09-05T22:09:43.079Z,80.55
2023-09-05T22:12:09.842Z,80.63
2023-09-05T22:14:36.597Z,80.92
2023-09-05T22:17:03.374Z,81.78
2023-09-05T22:19:32.531Z,81.44
2023-09-05T22:22:05.654Z,81.77
2023-09-05T22:24:33.442Z,83.11
2023-09-05T22:29:33.053Z,82.83
2023-09-05T22:32:00.589Z,83.32
2023-09-05T22:34:27.532Z,83.65
2023-09-05T22:39:27.365Z,84.52
2023-09-05T22:41:54.148Z,84.54
2023-09-05T22:44:20.881Z,84.84
2023-09-05T22:46:47.632Z,83.73
2023-09-05T22:49:14.387Z,83.05
2023-09-05T22:51:42.736Z,83.37
2023-09-05T22:54:10.813Z,83.80
2023-09-05T22:56:39.362Z,84.54
2023-09-05T22:59:07.864Z,83.28
2023-09-05T23:01:34.633Z,83.90
2023-09-05T23:04:01.484Z,83.43
2023-09-05T23:06:28.383Z,83.58
2023-09-05T23:08:55.184Z,84.25
2023-09-05T23:11:21.949Z,84.10
2023-09-05T23:13:48.780Z,85.01
2023-09-05T23:16:17.116Z,85.22
2023-09-05T23:18:46.085Z,85.85
2023-09-05T23:21:13.134Z,86.05
2023-09-05T23:23:39.877Z,85.94
2023-09-05T23:26:08.959Z,85.99
2023-09-05T23:28:36.602Z,86.13
2023-09-05T23:31:03.589Z,85.66
2023-09-05T23:33:33.011Z,85.39
2023-09-05T23:35:59.741Z,85.59
2023-09-05T23:38:27.915Z,85.73
2023-09-05T23:40:54.824Z,85.99
2023-09-05T23:43:21.593Z,86.25
2023-09-05T23:45:53.052Z,86.50
2023-09-05T23:48:20.709Z,87.18
2023-09-05T23:50:47.545Z,86.79
2023-09-05T23:53:14.565Z,87.04
2023-09-05T23:55:45.790Z,86.93
2023-09-05T23:58:13.009Z,87.75
